sensor_id;sensor_type;location;lat;lon;timestamp;temperature;humidity
66928;DHT22;59882;45.624;11.698;2022-09-06T00:00:23;24.40;67.20
66928;DHT22;59882;45.624;11.698;2022-09-06T00:02:49;24.40;67.00
66928;DHT22;59882;45.624;11.698;2022-09-06T00:05:14;24.40;67.10
66928;DHT22;59882;45.624;11.698;2022-09-06T00:07:40;24.40;66.80
66928;DHT22;59882;45.624;11.698;2022-09-06T00:10:07;24.40;67.00
66928;DHT22;59882;45.624;11.698;2022-09-06T00:12:33;24.40;67.10
66928;DHT22;59882;45.624;11.698;2022-09-06T00:14:58;24.40;67.30
66928;DHT22;59882;45.624;11.698;2022-09-06T00:17:24;24.40;67.30
66928;DHT22;59882;45.624;11.698;2022-09-06T00:19:50;24.40;67.40
66928;DHT22;59882;45.624;11.698;2022-09-06T00:22:16;24.30;67.80
66928;DHT22;59882;45.624;11.698;2022-09-06T00:24:41;24.30;67.70
66928;DHT22;59882;45.624;11.698;2022-09-06T00:27:08;24.30;67.80
66928;DHT22;59882;45.624;11.698;2022-09-06T00:29:34;24.30;67.80
66928;DHT22;59882;45.624;11.698;2022-09-06T00:32:00;24.30;67.90
66928;DHT22;59882;45.624;11.698;2022-09-06T00:34:26;24.30;68.10
66928;DHT22;59882;45.624;11.698;2022-09-06T00:36:52;24.30;68.10
66928;DHT22;59882;45.624;11.698;2022-09-06T00:39:18;24.20;68.00
66928;DHT22;59882;45.624;11.698;2022-09-06T00:41:43;24.10;68.50
66928;DHT22;59882;45.624;11.698;2022-09-06T00:44:09;24.10;68.80
66928;DHT22;59882;45.624;11.698;2022-09-06T00:46:37;24.10;68.40
66928;DHT22;59882;45.624;11.698;2022-09-06T00:49:24;24.10;68.50
66928;DHT22;59882;45.624;11.698;2022-09-06T00:51:52;24.10;68.60
66928;DHT22;59882;45.624;11.698;2022-09-06T00:54:20;24.00;68.50
66928;DHT22;59882;45.624;11.698;2022-09-06T00:56:46;24.00;69.00
66928;DHT22;59882;45.624;11.698;2022-09-06T00:59:12;23.90;69.20
66928;DHT22;59882;45.624;11.698;2022-09-06T01:01:38;23.90;68.80
66928;DHT22;59882;45.624;11.698;2022-09-06T01:04:03;23.90;68.50
66928;DHT22;59882;45.624;11.698;2022-09-06T01:21:24;23.90;69.00
66928;DHT22;59882;45.624;11.698;2022-09-06T01:31:56;23.70;69.10
66928;DHT22;59882;45.624;11.698;2022-09-06T01:34:33;23.60;69.40
66928;DHT22;59882;45.624;11.698;2022-09-06T01:37:10;23.60;69.50
66928;DHT22;59882;45.624;11.698;2022-09-06T01:39:39;23.50;69.30
66928;DHT22;59882;45.624;11.698;2022-09-06T01:42:29;23.50;69.50
66928;DHT22;59882;45.624;11.698;2022-09-06T01:44:57;23.40;69.70
66928;DHT22;59882;45.624;11.698;2022-09-06T01:58:43;23.20;70.10
66928;DHT22;59882;45.624;11.698;2022-09-06T02:01:33;23.20;69.50
66928;DHT22;59882;45.624;11.698;2022-09-06T02:06:51;23.20;70.00
66928;DHT22;59882;45.624;11.698;2022-09-06T02:09:22;23.20;69.90
66928;DHT22;59882;45.624;11.698;2022-09-06T02:11:58;23.20;69.90
66928;DHT22;59882;45.624;11.698;2022-09-06T02:14:37;23.20;70.00
66928;DHT22;59882;45.624;11.698;2022-09-06T02:17:07;23.20;70.00
66928;DHT22;59882;45.624;11.698;2022-09-06T02:19:42;23.20;70.50
66928;DHT22;59882;45.624;11.698;2022-09-06T02:22:13;23.10;70.30
66928;DHT22;59882;45.624;11.698;2022-09-06T02:24:43;23.10;70.00
66928;DHT22;59882;45.624;11.698;2022-09-06T02:27:11;23.10;70.30
66928;DHT22;59882;45.624;11.698;2022-09-06T02:29:37;23.20;69.60
66928;DHT22;59882;45.624;11.698;2022-09-06T02:34:37;23.20;69.20
66928;DHT22;59882;45.624;11.698;2022-09-06T02:37:04;23.20;69.20
66928;DHT22;59882;45.624;11.698;2022-09-06T02:39:30;23.10;69.70
66928;DHT22;59882;45.624;11.698;2022-09-06T02:41:56;23.00;69.70
66928;DHT22;59882;45.624;11.698;2022-09-06T02:44:22;23.10;69.90
66928;DHT22;59882;45.624;11.698;2022-09-06T02:46:48;23.00;69.70
66928;DHT22;59882;45.624;11.698;2022-09-06T02:49:14;23.00;69.90
66928;DHT22;59882;45.624;11.698;2022-09-06T02:51:39;23.00;70.40
66928;DHT22;59882;45.624;11.698;2022-09-06T02:54:05;23.00;70.80
66928;DHT22;59882;45.624;11.698;2022-09-06T02:56:32;22.90;70.80
66928;DHT22;59882;45.624;11.698;2022-09-06T02:58:58;22.90;70.90
66928;DHT22;59882;45.624;11.698;2022-09-06T03:01:25;22.90;70.90
66928;DHT22;59882;45.624;11.698;2022-09-06T03:03:50;22.70;71.20
66928;DHT22;59882;45.624;11.698;2022-09-06T03:06:16;22.70;71.40
66928;DHT22;59882;45.624;11.698;2022-09-06T03:08:42;22.60;71.50
66928;DHT22;59882;45.624;11.698;2022-09-06T03:11:07;22.60;71.60
66928;DHT22;59882;45.624;11.698;2022-09-06T03:13:33;22.60;71.90
66928;DHT22;59882;45.624;11.698;2022-09-06T03:15:59;22.60;71.90
66928;DHT22;59882;45.624;11.698;2022-09-06T03:18:27;22.60;72.10
66928;DHT22;59882;45.624;11.698;2022-09-06T03:20:53;22.60;71.90
66928;DHT22;59882;45.624;11.698;2022-09-06T03:23:23;22.60;71.90
66928;DHT22;59882;45.624;11.698;2022-09-06T03:25:49;22.60;71.80
66928;DHT22;59882;45.624;11.698;2022-09-06T03:28:16;22.60;71.90
66928;DHT22;59882;45.624;11.698;2022-09-06T03:30:44;22.60;71.60
66928;DHT22;59882;45.624;11.698;2022-09-06T03:33:10;22.70;71.50
66928;DHT22;59882;45.624;11.698;2022-09-06T03:35:36;22.70;71.80
66928;DHT22;59882;45.624;11.698;2022-09-06T03:38:01;22.70;71.80
66928;DHT22;59882;45.624;11.698;2022-09-06T03:40:27;22.70;72.00
66928;DHT22;59882;45.624;11.698;2022-09-06T03:42:52;22.70;71.90
66928;DHT22;59882;45.624;11.698;2022-09-06T03:45:18;22.60;71.80
66928;DHT22;59882;45.624;11.698;2022-09-06T03:47:44;22.70;71.80
66928;DHT22;59882;45.624;11.698;2022-09-06T03:50:09;22.60;71.60
66928;DHT22;59882;45.624;11.698;2022-09-06T03:52:35;22.60;72.00
66928;DHT22;59882;45.624;11.698;2022-09-06T03:55:02;22.70;72.00
66928;DHT22;59882;45.624;11.698;2022-09-06T03:57:28;22.70;71.70
66928;DHT22;59882;45.624;11.698;2022-09-06T03:59:53;22.70;71.20
66928;DHT22;59882;45.624;11.698;2022-09-06T04:02:19;22.80;71.00
66928;DHT22;59882;45.624;11.698;2022-09-06T04:04:45;22.80;70.70
66928;DHT22;59882;45.624;11.698;2022-09-06T04:07:10;22.80;71.10
66928;DHT22;59882;45.624;11.698;2022-09-06T04:09:36;22.80;71.20
66928;DHT22;59882;45.624;11.698;2022-09-06T04:12:02;22.70;71.30
66928;DHT22;59882;45.624;11.698;2022-09-06T04:14:28;22.70;71.60
66928;DHT22;59882;45.624;11.698;2022-09-06T04:16:54;22.60;71.70
66928;DHT22;59882;45.624;11.698;2022-09-06T04:19:20;22.60;71.80
66928;DHT22;59882;45.624;11.698;2022-09-06T04:21:45;22.60;72.00
66928;DHT22;59882;45.624;11.698;2022-09-06T04:24:11;22.60;71.50
66928;DHT22;59882;45.624;11.698;2022-09-06T04:26:37;22.60;71.30
66928;DHT22;59882;45.624;11.698;2022-09-06T04:29:02;22.60;71.70
66928;DHT22;59882;45.624;11.698;2022-09-06T04:31:28;22.60;71.80
66928;DHT22;59882;45.624;11.698;2022-09-06T04:33:54;22.50;71.60
66928;DHT22;59882;45.624;11.698;2022-09-06T04:36:19;22.40;71.90
66928;DHT22;59882;45.624;11.698;2022-09-06T04:38:45;22.40;71.80
66928;DHT22;59882;45.624;11.698;2022-09-06T04:41:16;22.40;72.00
66928;DHT22;59882;45.624;11.698;2022-09-06T04:43:43;22.40;71.90
66928;DHT22;59882;45.624;11.698;2022-09-06T04:46:24;22.30;72.00
66928;DHT22;59882;45.624;11.698;2022-09-06T04:48:51;22.30;72.40
66928;DHT22;59882;45.624;11.698;2022-09-06T04:51:17;22.20;72.00
66928;DHT22;59882;45.624;11.698;2022-09-06T04:53:44;22.20;72.30
66928;DHT22;59882;45.624;11.698;2022-09-06T04:56:14;22.20;72.40
66928;DHT22;59882;45.624;11.698;2022-09-06T04:58:42;22.20;72.70
66928;DHT22;59882;45.624;11.698;2022-09-06T05:01:07;22.20;72.40
66928;DHT22;59882;45.624;11.698;2022-09-06T05:03:33;22.20;72.20
66928;DHT22;59882;45.624;11.698;2022-09-06T05:06:10;22.20;72.50
66928;DHT22;59882;45.624;11.698;2022-09-06T05:08:38;22.10;72.30
66928;DHT22;59882;45.624;11.698;2022-09-06T05:11:05;22.20;72.40
66928;DHT22;59882;45.624;11.698;2022-09-06T05:13:31;22.20;72.50
66928;DHT22;59882;45.624;11.698;2022-09-06T05:16:01;22.10;72.70
66928;DHT22;59882;45.624;11.698;2022-09-06T05:18:27;22.10;72.60
66928;DHT22;59882;45.624;11.698;2022-09-06T05:20:53;22.10;72.70
66928;DHT22;59882;45.624;11.698;2022-09-06T05:23:20;22.20;73.00
66928;DHT22;59882;45.624;11.698;2022-09-06T05:25:46;22.20;72.70
66928;DHT22;59882;45.624;11.698;2022-09-06T05:28:13;22.20;72.90
66928;DHT22;59882;45.624;11.698;2022-09-06T05:30:38;22.20;72.90
66928;DHT22;59882;45.624;11.698;2022-09-06T05:33:06;22.20;73.20
66928;DHT22;59882;45.624;11.698;2022-09-06T05:35:31;22.20;73.10
66928;DHT22;59882;45.624;11.698;2022-09-06T05:37:57;22.20;72.90
66928;DHT22;59882;45.624;11.698;2022-09-06T05:40:23;22.20;72.80
66928;DHT22;59882;45.624;11.698;2022-09-06T05:42:48;22.20;73.10
66928;DHT22;59882;45.624;11.698;2022-09-06T05:45:14;22.10;73.20
66928;DHT22;59882;45.624;11.698;2022-09-06T05:47:39;22.10;73.10
66928;DHT22;59882;45.624;11.698;2022-09-06T05:50:05;22.10;73.30
66928;DHT22;59882;45.624;11.698;2022-09-06T05:52:32;22.10;72.90
66928;DHT22;59882;45.624;11.698;2022-09-06T05:55:00;22.10;73.30
66928;DHT22;59882;45.624;11.698;2022-09-06T05:57:26;22.20;73.60
66928;DHT22;59882;45.624;11.698;2022-09-06T05:59:51;22.10;73.50
66928;DHT22;59882;45.624;11.698;2022-09-06T06:02:21;22.20;73.50
66928;DHT22;59882;45.624;11.698;2022-09-06T06:04:48;22.20;73.70
66928;DHT22;59882;45.624;11.698;2022-09-06T06:07:13;22.20;73.80
66928;DHT22;59882;45.624;11.698;2022-09-06T06:09:40;22.20;73.60
66928;DHT22;59882;45.624;11.698;2022-09-06T06:12:06;22.20;73.90
66928;DHT22;59882;45.624;11.698;2022-09-06T06:14:32;22.20;73.50
66928;DHT22;59882;45.624;11.698;2022-09-06T06:16:57;22.30;74.30
66928;DHT22;59882;45.624;11.698;2022-09-06T06:19:24;22.40;73.80
66928;DHT22;59882;45.624;11.698;2022-09-06T06:21:51;22.40;73.70
66928;DHT22;59882;45.624;11.698;2022-09-06T06:24:16;22.40;73.20
66928;DHT22;59882;45.624;11.698;2022-09-06T06:26:42;22.50;73.70
66928;DHT22;59882;45.624;11.698;2022-09-06T06:29:08;22.60;73.30
66928;DHT22;59882;45.624;11.698;2022-09-06T06:31:35;22.70;73.00
66928;DHT22;59882;45.624;11.698;2022-09-06T06:34:01;22.80;72.60
66928;DHT22;59882;45.624;11.698;2022-09-06T06:36:28;22.80;72.30
66928;DHT22;59882;45.624;11.698;2022-09-06T06:38:58;22.90;72.00
66928;DHT22;59882;45.624;11.698;2022-09-06T06:41:27;23.00;71.90
66928;DHT22;59882;45.624;11.698;2022-09-06T06:43:55;23.10;71.80
66928;DHT22;59882;45.624;11.698;2022-09-06T06:46:26;23.20;71.50
66928;DHT22;59882;45.624;11.698;2022-09-06T06:48:53;23.20;71.30
66928;DHT22;59882;45.624;11.698;2022-09-06T06:51:22;23.30;71.10
66928;DHT22;59882;45.624;11.698;2022-09-06T06:53:48;23.40;71.00
66928;DHT22;59882;45.624;11.698;2022-09-06T06:56:43;23.40;70.70
66928;DHT22;59882;45.624;11.698;2022-09-06T06:59:10;23.50;70.30
66928;DHT22;59882;45.624;11.698;2022-09-06T07:01:36;23.50;70.00
66928;DHT22;59882;45.624;11.698;2022-09-06T07:04:02;23.60;69.90
66928;DHT22;59882;45.624;11.698;2022-09-06T07:06:28;23.70;69.90
66928;DHT22;59882;45.624;11.698;2022-09-06T07:08:58;23.70;69.90
66928;DHT22;59882;45.624;11.698;2022-09-06T07:11:24;23.80;70.00
66928;DHT22;59882;45.624;11.698;2022-09-06T07:13:50;23.90;69.80
66928;DHT22;59882;45.624;11.698;2022-09-06T07:16:19;23.90;69.40
66928;DHT22;59882;45.624;11.698;2022-09-06T07:18:46;23.90;69.30
66928;DHT22;59882;45.624;11.698;2022-09-06T07:21:16;24.00;69.10
66928;DHT22;59882;45.624;11.698;2022-09-06T07:23:42;24.00;68.80
66928;DHT22;59882;45.624;11.698;2022-09-06T07:26:22;24.10;68.60
66928;DHT22;59882;45.624;11.698;2022-09-06T07:28:51;24.20;68.50
66928;DHT22;59882;45.624;11.698;2022-09-06T07:31:17;24.30;68.40
66928;DHT22;59882;45.624;11.698;2022-09-06T07:33:43;24.30;68.50
66928;DHT22;59882;45.624;11.698;2022-09-06T07:36:08;24.40;68.30
66928;DHT22;59882;45.624;11.698;2022-09-06T07:38:36;24.40;68.10
66928;DHT22;59882;45.624;11.698;2022-09-06T07:41:04;24.50;67.40
66928;DHT22;59882;45.624;11.698;2022-09-06T07:43:31;24.50;67.10
66928;DHT22;59882;45.624;11.698;2022-09-06T07:48:27;24.60;67.30
66928;DHT22;59882;45.624;11.698;2022-09-06T07:50:54;24.70;66.50
66928;DHT22;59882;45.624;11.698;2022-09-06T07:53:19;24.70;66.00
66928;DHT22;59882;45.624;11.698;2022-09-06T07:55:45;24.80;66.00
66928;DHT22;59882;45.624;11.698;2022-09-06T07:58:10;24.80;65.80
66928;DHT22;59882;45.624;11.698;2022-09-06T08:00:36;24.70;65.90
66928;DHT22;59882;45.624;11.698;2022-09-06T08:03:04;24.70;66.20
66928;DHT22;59882;45.624;11.698;2022-09-06T08:05:29;24.80;66.30
66928;DHT22;59882;45.624;11.698;2022-09-06T08:07:55;24.80;66.20
66928;DHT22;59882;45.624;11.698;2022-09-06T08:10:20;24.90;66.30
66928;DHT22;59882;45.624;11.698;2022-09-06T08:12:46;24.90;66.00
66928;DHT22;59882;45.624;11.698;2022-09-06T08:15:12;24.90;65.30
66928;DHT22;59882;45.624;11.698;2022-09-06T08:17:37;24.90;65.30
66928;DHT22;59882;45.624;11.698;2022-09-06T08:20:03;24.90;65.40
66928;DHT22;59882;45.624;11.698;2022-09-06T08:22:32;25.00;65.40
66928;DHT22;59882;45.624;11.698;2022-09-06T08:24:58;25.10;64.70
66928;DHT22;59882;45.624;11.698;2022-09-06T08:27:24;25.10;64.50
66928;DHT22;59882;45.624;11.698;2022-09-06T08:29:50;25.10;64.50
66928;DHT22;59882;45.624;11.698;2022-09-06T08:32:15;25.20;64.10
66928;DHT22;59882;45.624;11.698;2022-09-06T08:34:41;25.20;64.10
66928;DHT22;59882;45.624;11.698;2022-09-06T08:37:07;25.20;64.00
66928;DHT22;59882;45.624;11.698;2022-09-06T08:39:32;25.30;64.00
66928;DHT22;59882;45.624;11.698;2022-09-06T08:42:04;25.40;63.70
66928;DHT22;59882;45.624;11.698;2022-09-06T08:44:40;25.40;63.60
66928;DHT22;59882;45.624;11.698;2022-09-06T08:49:56;25.60;63.50
66928;DHT22;59882;45.624;11.698;2022-09-06T09:01:20;25.80;62.10
66928;DHT22;59882;45.624;11.698;2022-09-06T09:03:51;25.80;62.20
66928;DHT22;59882;45.624;11.698;2022-09-06T09:06:17;25.90;61.90
66928;DHT22;59882;45.624;11.698;2022-09-06T09:11:17;26.00;61.50
66928;DHT22;59882;45.624;11.698;2022-09-06T09:16:13;26.10;59.80
66928;DHT22;59882;45.624;11.698;2022-09-06T09:18:45;26.10;60.30
66928;DHT22;59882;45.624;11.698;2022-09-06T09:21:13;26.10;60.90
66928;DHT22;59882;45.624;11.698;2022-09-06T09:23:39;26.20;61.40
66928;DHT22;59882;45.624;11.698;2022-09-06T09:26:09;26.30;60.80
66928;DHT22;59882;45.624;11.698;2022-09-06T09:28:36;26.30;60.50
66928;DHT22;59882;45.624;11.698;2022-09-06T09:31:02;26.40;60.40
66928;DHT22;59882;45.624;11.698;2022-09-06T09:33:31;26.40;60.70
66928;DHT22;59882;45.624;11.698;2022-09-06T09:35:59;26.40;60.70
66928;DHT22;59882;45.624;11.698;2022-09-06T09:38:40;26.50;60.80
66928;DHT22;59882;45.624;11.698;2022-09-06T09:41:07;26.50;61.10
66928;DHT22;59882;45.624;11.698;2022-09-06T09:43:39;26.60;60.60
66928;DHT22;59882;45.624;11.698;2022-09-06T09:48:38;26.80;60.10
66928;DHT22;59882;45.624;11.698;2022-09-06T09:51:24;26.90;59.50
66928;DHT22;59882;45.624;11.698;2022-09-06T09:53:54;26.90;60.10
66928;DHT22;59882;45.624;11.698;2022-09-06T09:56:39;26.90;60.00
66928;DHT22;59882;45.624;11.698;2022-09-06T10:02:15;27.00;60.10
66928;DHT22;59882;45.624;11.698;2022-09-06T10:04:51;27.10;59.60
66928;DHT22;59882;45.624;11.698;2022-09-06T10:07:20;27.20;59.00
66928;DHT22;59882;45.624;11.698;2022-09-06T10:09:48;27.20;58.40
66928;DHT22;59882;45.624;11.698;2022-09-06T10:12:16;27.30;58.10
66928;DHT22;59882;45.624;11.698;2022-09-06T10:14:46;27.30;58.50
66928;DHT22;59882;45.624;11.698;2022-09-06T10:17:21;27.40;57.20
66928;DHT22;59882;45.624;11.698;2022-09-06T10:19:52;27.40;57.10
66928;DHT22;59882;45.624;11.698;2022-09-06T10:22:26;27.40;58.20
66928;DHT22;59882;45.624;11.698;2022-09-06T10:25:13;27.40;58.20
66928;DHT22;59882;45.624;11.698;2022-09-06T10:30:38;27.60;58.20
66928;DHT22;59882;45.624;11.698;2022-09-06T10:35:39;27.80;58.80
66928;DHT22;59882;45.624;11.698;2022-09-06T10:43:19;28.10;56.20
66928;DHT22;59882;45.624;11.698;2022-09-06T10:46:01;28.10;56.60
66928;DHT22;59882;45.624;11.698;2022-09-06T10:48:34;28.10;56.50
66928;DHT22;59882;45.624;11.698;2022-09-06T10:51:53;28.10;55.40
66928;DHT22;59882;45.624;11.698;2022-09-06T10:54:13;28.20;56.50
66928;DHT22;59882;45.624;11.698;2022-09-06T10:56:51;28.30;55.40
66928;DHT22;59882;45.624;11.698;2022-09-06T11:04:41;28.40;56.20
66928;DHT22;59882;45.624;11.698;2022-09-06T11:09:46;28.50;56.50
66928;DHT22;59882;45.624;11.698;2022-09-06T11:14:52;28.60;56.30
66928;DHT22;59882;45.624;11.698;2022-09-06T11:17:39;28.70;56.50
66928;DHT22;59882;45.624;11.698;2022-09-06T11:22:57;28.90;55.00
66928;DHT22;59882;45.624;11.698;2022-09-06T11:26:02;29.00;55.90
66928;DHT22;59882;45.624;11.698;2022-09-06T11:28:35;29.10;55.00
66928;DHT22;59882;45.624;11.698;2022-09-06T11:31:02;29.20;53.30
66928;DHT22;59882;45.624;11.698;2022-09-06T11:33:30;29.30;54.40
66928;DHT22;59882;45.624;11.698;2022-09-06T11:38:55;29.40;55.20
66928;DHT22;59882;45.624;11.698;2022-09-06T11:41:32;29.50;53.90
66928;DHT22;59882;45.624;11.698;2022-09-06T11:43:59;29.60;52.70
66928;DHT22;59882;45.624;11.698;2022-09-06T11:51:38;29.90;51.70
66928;DHT22;59882;45.624;11.698;2022-09-06T11:54:17;29.90;51.40
66928;DHT22;59882;45.624;11.698;2022-09-06T11:59:53;30.20;49.80
66928;DHT22;59882;45.624;11.698;2022-09-06T12:02:36;30.20;50.60
66928;DHT22;59882;45.624;11.698;2022-09-06T12:07:33;30.50;51.00
66928;DHT22;59882;45.624;11.698;2022-09-06T12:12:56;30.90;50.30
66928;DHT22;59882;45.624;11.698;2022-09-06T12:17:51;31.20;48.30
66928;DHT22;59882;45.624;11.698;2022-09-06T12:25:59;31.90;48.70
66928;DHT22;59882;45.624;11.698;2022-09-06T12:31:27;32.20;46.70
66928;DHT22;59882;45.624;11.698;2022-09-06T12:33:55;32.30;45.20
66928;DHT22;59882;45.624;11.698;2022-09-06T12:36:31;32.40;46.10
66928;DHT22;59882;45.624;11.698;2022-09-06T12:39:07;32.50;44.40
66928;DHT22;59882;45.624;11.698;2022-09-06T12:41:45;32.60;43.80
66928;DHT22;59882;45.624;11.698;2022-09-06T12:44:13;33.00;43.20
66928;DHT22;59882;45.624;11.698;2022-09-06T12:46:48;34.20;40.00
66928;DHT22;59882;45.624;11.698;2022-09-06T12:49:18;35.70;37.60
66928;DHT22;59882;45.624;11.698;2022-09-06T12:51:44;37.50;35.30
66928;DHT22;59882;45.624;11.698;2022-09-06T12:54:24;38.70;34.00
66928;DHT22;59882;45.624;11.698;2022-09-06T12:56:51;40.00;31.80
66928;DHT22;59882;45.624;11.698;2022-09-06T12:59:22;41.00;31.40
66928;DHT22;59882;45.624;11.698;2022-09-06T13:02:05;41.90;30.70
66928;DHT22;59882;45.624;11.698;2022-09-06T13:04:33;42.70;27.70
66928;DHT22;59882;45.624;11.698;2022-09-06T13:07:02;43.40;26.00
66928;DHT22;59882;45.624;11.698;2022-09-06T13:09:29;44.10;25.90
66928;DHT22;59882;45.624;11.698;2022-09-06T13:12:24;44.40;24.40
66928;DHT22;59882;45.624;11.698;2022-09-06T13:14:54;44.70;24.00
66928;DHT22;59882;45.624;11.698;2022-09-06T13:17:26;45.00;23.10
66928;DHT22;59882;45.624;11.698;2022-09-06T13:19:52;45.10;23.80
66928;DHT22;59882;45.624;11.698;2022-09-06T13:22:40;45.20;23.40
66928;DHT22;59882;45.624;11.698;2022-09-06T13:25:22;45.20;23.40
66928;DHT22;59882;45.624;11.698;2022-09-06T13:27:51;45.30;23.00
66928;DHT22;59882;45.624;11.698;2022-09-06T13:30:31;45.00;24.00
66928;DHT22;59882;45.624;11.698;2022-09-06T13:32:57;45.00;23.90
66928;DHT22;59882;45.624;11.698;2022-09-06T13:35:26;45.00;23.10
66928;DHT22;59882;45.624;11.698;2022-09-06T13:40:45;45.10;23.30
66928;DHT22;59882;45.624;11.698;2022-09-06T13:43:12;44.60;23.80
66928;DHT22;59882;45.624;11.698;2022-09-06T13:45:38;43.70;25.40
66928;DHT22;59882;45.624;11.698;2022-09-06T13:48:04;43.40;26.00
66928;DHT22;59882;45.624;11.698;2022-09-06T13:50:31;43.30;25.50
66928;DHT22;59882;45.624;11.698;2022-09-06T13:52:57;43.50;25.40
66928;DHT22;59882;45.624;11.698;2022-09-06T13:55:25;43.80;25.90
66928;DHT22;59882;45.624;11.698;2022-09-06T13:57:52;44.00;26.20
66928;DHT22;59882;45.624;11.698;2022-09-06T14:00:18;44.10;25.90
66928;DHT22;59882;45.624;11.698;2022-09-06T14:02:44;44.50;26.40
66928;DHT22;59882;45.624;11.698;2022-09-06T14:05:11;44.80;24.80
66928;DHT22;59882;45.624;11.698;2022-09-06T14:07:37;45.00;25.00
66928;DHT22;59882;45.624;11.698;2022-09-06T14:10:03;45.20;24.90
66928;DHT22;59882;45.624;11.698;2022-09-06T14:12:29;45.30;24.70
66928;DHT22;59882;45.624;11.698;2022-09-06T14:14:54;45.50;24.40
66928;DHT22;59882;45.624;11.698;2022-09-06T14:17:20;45.60;23.90
66928;DHT22;59882;45.624;11.698;2022-09-06T14:19:45;45.70;24.50
66928;DHT22;59882;45.624;11.698;2022-09-06T14:22:11;45.80;24.50
66928;DHT22;59882;45.624;11.698;2022-09-06T14:24:38;45.90;23.20
66928;DHT22;59882;45.624;11.698;2022-09-06T14:27:04;45.80;23.60
66928;DHT22;59882;45.624;11.698;2022-09-06T14:29:32;45.80;23.70
66928;DHT22;59882;45.624;11.698;2022-09-06T14:31:59;45.70;24.40
66928;DHT22;59882;45.624;11.698;2022-09-06T14:34:25;45.70;24.10
66928;DHT22;59882;45.624;11.698;2022-09-06T14:36:50;45.70;24.30
66928;DHT22;59882;45.624;11.698;2022-09-06T14:39:16;45.70;23.60
66928;DHT22;59882;45.624;11.698;2022-09-06T14:41:42;45.70;23.70
66928;DHT22;59882;45.624;11.698;2022-09-06T14:44:08;45.70;23.60
66928;DHT22;59882;45.624;11.698;2022-09-06T14:46:34;45.70;23.70
66928;DHT22;59882;45.624;11.698;2022-09-06T14:49:02;45.60;24.40
66928;DHT22;59882;45.624;11.698;2022-09-06T14:51:29;45.50;23.60
66928;DHT22;59882;45.624;11.698;2022-09-06T14:53:57;45.10;24.10
66928;DHT22;59882;45.624;11.698;2022-09-06T14:56:24;44.90;24.30
66928;DHT22;59882;45.624;11.698;2022-09-06T14:58:50;44.80;24.80
66928;DHT22;59882;45.624;11.698;2022-09-06T15:01:20;44.70;24.70
66928;DHT22;59882;45.624;11.698;2022-09-06T15:03:48;44.50;24.80
66928;DHT22;59882;45.624;11.698;2022-09-06T15:06:18;44.00;25.10
66928;DHT22;59882;45.624;11.698;2022-09-06T15:08:44;43.40;26.20
66928;DHT22;59882;45.624;11.698;2022-09-06T15:11:10;43.00;26.80
66928;DHT22;59882;45.624;11.698;2022-09-06T15:13:38;42.80;26.50
66928;DHT22;59882;45.624;11.698;2022-09-06T15:16:06;42.80;26.40
66928;DHT22;59882;45.624;11.698;2022-09-06T15:18:33;43.00;26.70
66928;DHT22;59882;45.624;11.698;2022-09-06T15:21:13;43.10;26.50
66928;DHT22;59882;45.624;11.698;2022-09-06T15:23:39;43.40;25.10
66928;DHT22;59882;45.624;11.698;2022-09-06T15:26:08;43.40;25.40
66928;DHT22;59882;45.624;11.698;2022-09-06T15:28:39;43.30;25.50
66928;DHT22;59882;45.624;11.698;2022-09-06T15:31:06;43.20;25.00
66928;DHT22;59882;45.624;11.698;2022-09-06T15:33:33;43.10;25.20
66928;DHT22;59882;45.624;11.698;2022-09-06T15:36:00;43.20;25.10
66928;DHT22;59882;45.624;11.698;2022-09-06T15:38:31;43.00;25.40
66928;DHT22;59882;45.624;11.698;2022-09-06T15:41:05;43.00;26.50
66928;DHT22;59882;45.624;11.698;2022-09-06T15:43:32;43.00;26.30
66928;DHT22;59882;45.624;11.698;2022-09-06T15:45:58;42.80;26.40
66928;DHT22;59882;45.624;11.698;2022-09-06T15:48:25;42.60;26.20
66928;DHT22;59882;45.624;11.698;2022-09-06T15:50:51;42.50;26.60
66928;DHT22;59882;45.624;11.698;2022-09-06T15:53:17;42.50;26.20
66928;DHT22;59882;45.624;11.698;2022-09-06T15:55:42;42.40;26.40
66928;DHT22;59882;45.624;11.698;2022-09-06T15:58:21;42.30;26.10
66928;DHT22;59882;45.624;11.698;2022-09-06T16:01:05;42.30;25.60
66928;DHT22;59882;45.624;11.698;2022-09-06T16:03:34;42.10;26.80
66928;DHT22;59882;45.624;11.698;2022-09-06T16:06:02;41.90;27.10
66928;DHT22;59882;45.624;11.698;2022-09-06T16:08:29;41.50;29.60
66928;DHT22;59882;45.624;11.698;2022-09-06T16:10:55;40.90;31.00
66928;DHT22;59882;45.624;11.698;2022-09-06T16:13:21;40.50;32.10
66928;DHT22;59882;45.624;11.698;2022-09-06T16:15:57;40.30;32.30
66928;DHT22;59882;45.624;11.698;2022-09-06T16:18:23;40.10;32.90
66928;DHT22;59882;45.624;11.698;2022-09-06T16:20:49;39.80;33.30
66928;DHT22;59882;45.624;11.698;2022-09-06T16:23:15;39.40;33.80
66928;DHT22;59882;45.624;11.698;2022-09-06T16:25:41;38.80;34.80
66928;DHT22;59882;45.624;11.698;2022-09-06T16:28:11;38.30;35.30
66928;DHT22;59882;45.624;11.698;2022-09-06T16:30:40;37.80;36.10
66928;DHT22;59882;45.624;11.698;2022-09-06T16:33:06;37.40;37.40
66928;DHT22;59882;45.624;11.698;2022-09-06T16:35:32;37.00;38.00
66928;DHT22;59882;45.624;11.698;2022-09-06T16:37:58;36.60;38.10
66928;DHT22;59882;45.624;11.698;2022-09-06T16:40:25;36.40;39.30
66928;DHT22;59882;45.624;11.698;2022-09-06T16:42:51;36.30;39.50
66928;DHT22;59882;45.624;11.698;2022-09-06T16:45:18;36.20;39.80
66928;DHT22;59882;45.624;11.698;2022-09-06T16:47:44;36.20;39.70
66928;DHT22;59882;45.624;11.698;2022-09-06T16:50:11;36.10;40.30
66928;DHT22;59882;45.624;11.698;2022-09-06T16:52:36;36.00;40.60
66928;DHT22;59882;45.624;11.698;2022-09-06T16:55:05;36.00;40.70
66928;DHT22;59882;45.624;11.698;2022-09-06T16:57:31;35.90;40.40
66928;DHT22;59882;45.624;11.698;2022-09-06T16:59:58;35.80;41.20
66928;DHT22;59882;45.624;11.698;2022-09-06T17:02:23;35.70;41.50
66928;DHT22;59882;45.624;11.698;2022-09-06T17:04:49;35.40;42.00
66928;DHT22;59882;45.624;11.698;2022-09-06T17:07:15;35.20;42.90
66928;DHT22;59882;45.624;11.698;2022-09-06T17:09:41;34.90;42.40
66928;DHT22;59882;45.624;11.698;2022-09-06T17:12:07;34.60;43.70
66928;DHT22;59882;45.624;11.698;2022-09-06T17:14:33;34.30;44.30
66928;DHT22;59882;45.624;11.698;2022-09-06T17:17:00;34.00;44.70
66928;DHT22;59882;45.624;11.698;2022-09-06T17:19:32;33.80;45.30
66928;DHT22;59882;45.624;11.698;2022-09-06T17:21:58;33.50;46.20